Mura (Bages)





Hora UTC 07:05
Temperatura 22.2 ºC
Humitat 83.0 %
Pressió 1001.1 hPa
Pluja 0.4 mm
Velocitat vent 0.0 km/h
Direcció vent

Dades diàries 2024-07-21



Hora UTC (hivern +1h; estiu +2h)
Temperatura (ºC) Humitat (%) Pressió (hPa) Velocitat vent (km/h) Precipitació (mm)
Hora UTC Aire Humitat Pressió Vel. Dir. Vel. Max Dir. Intent. màx 5 min.
00:05 20.6 67.0 999.2 0.0 0.0 0.0
00:15 20.4 67.0 999.2 0.0 0.0 0.0
00:25 20.1 68.0 999.2 0.0 8.0 0.0
00:35 20.2 68.0 999.2 0.0 8.0 0.0
00:45 20.2 68.0 999.1 0.0 8.0 0.0
00:55 20.1 68.0 999.3 0.0 8.0 0.0
01:05 19.7 71.0 999.3 0.0 8.0 0.0
01:15 19.3 71.0 999.3 0.0 8.0 0.0
01:25 19.3 72.0 999.1 0.0 8.0 0.0
01:35 19.2 72.0 999.1 0.0 8.0 0.0
01:45 19.1 72.0 999.1 0.0 8.0 0.0
01:55 19.0 73.0 999.2 0.0 8.0 0.0
02:05 19.0 73.0 999.2 0.0 8.0 0.0
02:15 18.9 75.0 999.2 0.0 8.0 0.0
02:25 18.9 75.0 999.2 0.0 8.0 0.0
02:35 18.9 75.0 999.2 0.0 8.0 0.0
02:45 18.9 76.0 999.2 0.0 8.0 0.0
02:55 18.8 77.0 999.3 0.0 8.0 0.0
03:05 18.8 78.0 999.3 0.0 8.0 0.0
03:15 18.8 78.0 999.7 0.0 8.0 0.0
03:25 18.7 79.0 999.7 0.0 8.0 0.0
03:35 18.6 79.0 999.7 0.0 8.0 0.0
03:45 18.6 81.0 999.7 0.0 8.0 0.0
03:55 18.7 81.0 999.7 0.0 8.0 0.0
04:05 18.6 82.0 999.7 0.0 8.0 0.0
04:15 18.6 82.0 1000.0 0.0 8.0 0.0
04:25 18.7 83.0 1000.2 0.0 8.0 0.0
04:35 19.2 83.0 1000.2 1.6 9.7 0.0
04:45 19.6 83.0 1000.2 0.0 9.7 0.0
04:55 19.9 83.0 1000.2 0.0 9.7 0.0
05:05 22.1 84.0 1000.2 1.6 9.7 0.0
05:15 22.8 82.0 1000.2 1.6 9.7 0.0
05:25 23.2 81.0 1000.4 1.6 14.5 0.0
05:35 23.6 79.0 1000.4 8.0 29.0 0.0
05:45 23.8 79.0 1000.7 11.3 32.2 0.0
05:55 23.7 79.0 1000.7 9.7 32.2 0.0
06:05 22.9 81.0 1000.7 6.4 32.2 0.0
06:15 22.6 83.0 1001.2 1.6 32.2 0.0
06:25 22.5 83.0 1001.3 0.0 32.2 0.0
06:35 22.4 82.0 1001.3 0.0 32.2 0.2
06:45 22.0 84.0 1001.2 0.0 32.2 0.2
06:55 22.2 85.0 1001.1 0.0 32.2 0.0
07:05 22.2 83.0 1001.1 0.0 32.2 0.0
Màxima 23.8 85.0 1001.3 11.3 32.2 0.2
Mínima 18.6 67.0 999.1
Total 0.4